Warning: Javascript must be enabled to use all the features on this page!


Page Loading - Please Wait...

Click to hideNews Bulletins

Peak Streamflow for the Nation

USGS 02423500 CAHABA RIVER NEAR ACTON AL

Jefferson County, Alabama
Hydrologic Unit Code 03150202
Latitude  33°21'48", Longitude  86°48'47" NAD27
Drainage area 230.00  square miles
Gage datum 375.00 feet above NGVD29
Output formats
Table
Graph
Tab-separated file
peakfq (watstore) format
Reselect output format
Water
Year
Date Gage
Height
(feet)
Stream-
flow
(cfs)
1939 1939-02-28 19.03 5,570
1940 1940-02-06 20.03 6,010
1941 1941-08-03 17.10 4,800
1942 1942-03-21 20.45 6,200
1943 1942-12-28 43.70 34,000
1944 1944-03-29 26.43 9,000
1945 1945-02-13 22.002 6,900
1946 1946-02-10 33.102 13,700
1947 1947-01-20 29.302 10,800
1948 1948-02-09 20.302 6,180
1949 1948-11-29 39.802 23,000
1950 1950-03-14 20.20 6,100
1951 1951-03-29 36.802 17,800
1952 1951-12-21 24.302 7,720
1953 1953-01-09 26.00 8,700
1954 1954-01-16 23.60 7,300
1955 1955-02-07 26.80 9,340
1956 1956-04-06 21.20 6,590
1957 1957-04-05 29.40 11,000
1961 1961-02-22 42.66 30,0007
1979 1979-04-13 42.84 31,0007
1984 1983-12-03 34.62 15,000
1985 1985-02-01 18.30 5,380
1986 1986-07-21 8.05 1,820
1987 1986-11-26 16.02 4,270
1988 1988-01-20 12.82 3,230
1989 1989-03-05 25.81 9,220
1990 1990-02-16 33.11 14,000
1991 1991-02-20 22.14 7,350
1992 1992-09-04 16.00 4,400
1993 1993-01-13 24.51 8,100
1994 1994-07-27 16.06 4,400
1995 1995-03-08 18.12 5,200
1996 1996-03-07 33.35 14,500
1997 1997-06-15 20.99 6,480
1998 1998-01-08 32.42 13,300
1999 1999-06-29 28.10 9,900
2000 2000-04-04 34.40 15,200
2001 2001-04-04 30.85 12,100
2002 2002-09-22 25.63 8,630
2003 2003-05-08 37.74 19,100
2004 2004-09-17 32.62 13,400
2005 2004-11-25 30.05 11,500
2006 2006-02-07 21.58 6,990
2007 2007-01-08 8.95 1,800
2008 2008-08-26 20.29 6,340
2009 2009-01-07 26.06 9,150
2010 2009-11-11 27.72 10,100
2011 2011-03-10 27.32 9,830
2012 2012-01-27 19.98 6,190
2013 2013-05-19 25.19 8,170
2014 2014-04-07 34.98 14,500
2015 2015-01-04 23.28 7,320
2016 2015-12-26 23.86 7,550
2017 2017-06-24 20.79 6,320
2018 2018-04-15 23.53 7,420
2019 2018-12-29 29.43 10,700
2020 2020-02-07 31.35 12,000
?
  Peak Gage-Height Qualification Codes.
?
  Peak Streamflow Qualification Codes.